Coral Favia — PHKM — position and weather

sailwx.info

Track history (hours):
 
Tides and Currents Weather Stations Pressure Air Temp Water Temp Dewpoint Dewpoint Depression Visibility Wind Speed Wind Dir Waves Ship Positions

Coral Favia

Last reported at 2014-Nov-21 16:31 UTC. Time now 2014-Nov-23 22:24 UTC.
Position N 43°24' W 003°07'.

Length 100 m; beam 17 m.

Type: Tanker. MMSI: 244627000.

Date/timePositionNaut miles runAvg speedWind from/ knotsBaromVisibWave heightAir tempDewpointWater temp
2014-Nov-21 16:31N 43°24' W 003°07'0 0.0
2014-Nov-21 15:31N 43°24' W 003°07'0 0.0
2014-Nov-21 14:31N 43°24' W 003°07'0 0.0
2014-Nov-21 13:31N 43°24' W 003°07'0 0.0
2014-Nov-21 12:31N 43°24' W 003°07'0 0.0
2014-Nov-21 11:31N 43°24' W 003°07'0 0.0
2014-Nov-21 10:31N 43°24' W 003°07'0 0.0
2014-Nov-21 09:31N 43°24' W 003°07'0 0.0
2014-Nov-21 08:31N 43°24' W 003°07'0 0.0
2014-Nov-21 07:31N 43°24' W 003°07'0 0.0
2014-Nov-21 06:31N 43°24' W 003°07'0 0.0
2014-Nov-21 05:31N 43°24' W 003°07'0 0.0
2014-Nov-21 04:31N 43°24' W 003°07'0 0.0
2014-Nov-21 03:31N 43°24' W 003°07'0 0.0
2014-Nov-21 02:31N 43°24' W 003°07'0 0.0
2014-Nov-21 01:25N 43°24' W 003°07'0 0.0
2014-Nov-21 00:10N 43°24' W 003°07'0 0.0
2014-Nov-20 23:31N 43°24' W 003°07'0 0.0
2014-Nov-20 22:31N 43°24' W 003°07'0 0.0
2014-Nov-20 21:31N 43°24' W 003°07'0 0.0
2014-Nov-20 20:31N 43°24' W 003°07'0 0.0
2014-Nov-20 19:31N 43°24' W 003°07'0 0.0
2014-Nov-20 18:31N 43°24' W 003°07'  
2014-Nov-18 10:25N 43°32' W 003°18'13 0.4
2014-Nov-16 21:04N 43°29' W 002°60'3 5.2
2014-Nov-16 20:33N 43°29' W 003°04'6 6.3
2014-Nov-16 19:33N 43°30' W 003°12'1413.8
2014-Nov-16 18:33N 43°36' W 003°29'  
2014-Nov-13 17:07N 50°32' E 000°17'812.9
2014-Nov-13 16:30N 50°34' E 000°29'1111.9
2014-Nov-13 15:33N 50°39' E 000°45'1111.4
2014-Nov-13 14:33N 50°46' E 000°59'1511.2
2014-Nov-13 13:16N 50°55' E 001°18'912.2
2014-Nov-13 12:32N 51°01' E 001°27'1313.8
2014-Nov-13 11:34N 51°11' E 001°42'1414.1
2014-Nov-13 10:33N 51°22' E 001°56'1312.6
2014-Nov-13 09:33N 51°21' E 002°16'1410.7
2014-Nov-13 08:17N 51°27' E 002°36'0 0.1
2014-Nov-13 07:32N 51°27' E 002°36'0 0.0
2014-Nov-13 06:33N 51°27' E 002°36'0 0.0
2014-Nov-13 05:30N 51°27' E 002°36'0 0.0
2014-Nov-13 04:20N 51°27' E 002°36'0 0.0
2014-Nov-13 03:33N 51°27' E 002°36'0 0.0
2014-Nov-13 02:31N 51°27' E 002°36'0 0.1
2014-Nov-13 01:22N 51°27' E 002°36'0 0.0
2014-Nov-12 23:32N 51°27' E 002°36'0 0.1
2014-Nov-12 22:28N 51°27' E 002°36'0 0.1
2014-Nov-12 21:28N 51°27' E 002°36'0 0.0
2014-Nov-12 20:31N 51°27' E 002°36'0 0.0
2014-Nov-12 19:28N 51°27' E 002°36'0 0.0
2014-Nov-12 18:31N 51°27' E 002°36'0 0.0
2014-Nov-12 17:28N 51°27' E 002°36'0 0.0
2014-Nov-12 16:31N 51°27' E 002°36'0 0.0
2014-Nov-12 15:31N 51°27' E 002°36'0 0.0
2014-Nov-12 14:31N 51°27' E 002°36'0 0.0
2014-Nov-12 13:31N 51°27' E 002°36'0 0.0
2014-Nov-12 12:31N 51°27' E 002°36'0 0.0
2014-Nov-12 11:31N 51°27' E 002°36'0 0.0
2014-Nov-12 10:31N 51°27' E 002°36'0 0.0
2014-Nov-12 09:31N 51°27' E 002°36'0 0.0
2014-Nov-12 08:31N 51°27' E 002°36'0 0.0
2014-Nov-12 07:31N 51°27' E 002°36'0 0.0
2014-Nov-12 06:31N 51°27' E 002°36'0 0.0
2014-Nov-12 05:22N 51°27' E 002°36'0 0.0
2014-Nov-12 04:19N 51°27' E 002°36'0 0.0
2014-Nov-12 03:19N 51°27' E 002°36'0 0.0
2014-Nov-12 02:25N 51°27' E 002°36'0 0.0
2014-Nov-12 01:28N 51°27' E 002°36'0 0.1
2014-Nov-12 00:31N 51°27' E 002°36'0 0.0
2014-Nov-11 23:28N 51°27' E 002°36'0 0.0
2014-Nov-11 22:31N 51°27' E 002°36'0 0.0
2014-Nov-11 21:28N 51°27' E 002°36'0 0.0
2014-Nov-11 20:31N 51°27' E 002°36'0 0.0
2014-Nov-11 19:28N 51°27' E 002°36'0 0.1
2014-Nov-11 18:31N 51°27' E 002°36'0 0.1
2014-Nov-11 17:31N 51°27' E 002°36'0 0.0
2014-Nov-11 16:31N 51°27' E 002°36'  
Track history (hours):
 
Tides and Currents Weather Stations Pressure Air Temp Water Temp Dewpoint Dewpoint Depression Visibility Wind Speed Wind Dir Waves Ship Positions

Coral Favia

Last reported at 2014-Nov-21 16:31 UTC. Time now 2014-Nov-23 22:24 UTC.
Position N 43°24' W 003°07'.

Length 100 m; beam 17 m.

Type: Tanker. MMSI: 244627000.

Date/timePositionNaut miles runAvg speedWind from/ knotsBaromVisibWave heightAir tempDewpointWater temp
2014-Nov-21 16:31N 43°24' W 003°07'0 0.0
2014-Nov-21 15:31N 43°24' W 003°07'0 0.0
2014-Nov-21 14:31N 43°24' W 003°07'0 0.0
2014-Nov-21 13:31N 43°24' W 003°07'0 0.0
2014-Nov-21 12:31N 43°24' W 003°07'0 0.0
2014-Nov-21 11:31N 43°24' W 003°07'0 0.0
2014-Nov-21 10:31N 43°24' W 003°07'0 0.0
2014-Nov-21 09:31N 43°24' W 003°07'0 0.0
2014-Nov-21 08:31N 43°24' W 003°07'0 0.0
2014-Nov-21 07:31N 43°24' W 003°07'0 0.0
2014-Nov-21 06:31N 43°24' W 003°07'0 0.0
2014-Nov-21 05:31N 43°24' W 003°07'0 0.0
2014-Nov-21 04:31N 43°24' W 003°07'0 0.0
2014-Nov-21 03:31N 43°24' W 003°07'0 0.0
2014-Nov-21 02:31N 43°24' W 003°07'0 0.0
2014-Nov-21 01:25N 43°24' W 003°07'0 0.0
2014-Nov-21 00:10N 43°24' W 003°07'0 0.0
2014-Nov-20 23:31N 43°24' W 003°07'0 0.0
2014-Nov-20 22:31N 43°24' W 003°07'0 0.0
2014-Nov-20 21:31N 43°24' W 003°07'0 0.0
2014-Nov-20 20:31N 43°24' W 003°07'0 0.0
2014-Nov-20 19:31N 43°24' W 003°07'0 0.0
2014-Nov-20 18:31N 43°24' W 003°07'  
2014-Nov-18 10:25N 43°32' W 003°18'13 0.4
2014-Nov-16 21:04N 43°29' W 002°60'3 5.2
2014-Nov-16 20:33N 43°29' W 003°04'6 6.3
2014-Nov-16 19:33N 43°30' W 003°12'1413.8
2014-Nov-16 18:33N 43°36' W 003°29'  
2014-Nov-13 17:07N 50°32' E 000°17'812.9
2014-Nov-13 16:30N 50°34' E 000°29'1111.9
2014-Nov-13 15:33N 50°39' E 000°45'1111.4
2014-Nov-13 14:33N 50°46' E 000°59'1511.2
2014-Nov-13 13:16N 50°55' E 001°18'912.2
2014-Nov-13 12:32N 51°01' E 001°27'1313.8
2014-Nov-13 11:34N 51°11' E 001°42'1414.1
2014-Nov-13 10:33N 51°22' E 001°56'1312.6
2014-Nov-13 09:33N 51°21' E 002°16'1410.7
2014-Nov-13 08:17N 51°27' E 002°36'0 0.1
2014-Nov-13 07:32N 51°27' E 002°36'0 0.0
2014-Nov-13 06:33N 51°27' E 002°36'0 0.0
2014-Nov-13 05:30N 51°27' E 002°36'0 0.0
2014-Nov-13 04:20N 51°27' E 002°36'0 0.0
2014-Nov-13 03:33N 51°27' E 002°36'0 0.0
2014-Nov-13 02:31N 51°27' E 002°36'0 0.1
2014-Nov-13 01:22N 51°27' E 002°36'0 0.0
2014-Nov-12 23:32N 51°27' E 002°36'0 0.1
2014-Nov-12 22:28N 51°27' E 002°36'0 0.1
2014-Nov-12 21:28N 51°27' E 002°36'0 0.0
2014-Nov-12 20:31N 51°27' E 002°36'0 0.0
2014-Nov-12 19:28N 51°27' E 002°36'0 0.0
2014-Nov-12 18:31N 51°27' E 002°36'0 0.0
2014-Nov-12 17:28N 51°27' E 002°36'0 0.0
2014-Nov-12 16:31N 51°27' E 002°36'0 0.0
2014-Nov-12 15:31N 51°27' E 002°36'0 0.0
2014-Nov-12 14:31N 51°27' E 002°36'0 0.0
2014-Nov-12 13:31N 51°27' E 002°36'0 0.0
2014-Nov-12 12:31N 51°27' E 002°36'0 0.0
2014-Nov-12 11:31N 51°27' E 002°36'0 0.0
2014-Nov-12 10:31N 51°27' E 002°36'0 0.0
2014-Nov-12 09:31N 51°27' E 002°36'0 0.0
2014-Nov-12 08:31N 51°27' E 002°36'0 0.0
2014-Nov-12 07:31N 51°27' E 002°36'0 0.0
2014-Nov-12 06:31N 51°27' E 002°36'0 0.0
2014-Nov-12 05:22N 51°27' E 002°36'0 0.0
2014-Nov-12 04:19N 51°27' E 002°36'0 0.0
2014-Nov-12 03:19N 51°27' E 002°36'0 0.0
2014-Nov-12 02:25N 51°27' E 002°36'0 0.0
2014-Nov-12 01:28N 51°27' E 002°36'0 0.1
2014-Nov-12 00:31N 51°27' E 002°36'0 0.0
2014-Nov-11 23:28N 51°27' E 002°36'0 0.0
2014-Nov-11 22:31N 51°27' E 002°36'0 0.0
2014-Nov-11 21:28N 51°27' E 002°36'0 0.0
2014-Nov-11 20:31N 51°27' E 002°36'0 0.0
2014-Nov-11 19:28N 51°27' E 002°36'0 0.1
2014-Nov-11 18:31N 51°27' E 002°36'0 0.1
2014-Nov-11 17:31N 51°27' E 002°36'0 0.0
2014-Nov-11 16:31N 51°27' E 002°36'  

Dump ship's entire track history